createdAt,value
2023-01-04T00:01:13.459Z,53.97
2023-01-04T00:03:40.438Z,54.13
2023-01-04T00:06:08.777Z,54.22
2023-01-04T00:08:35.548Z,54.23
2023-01-04T00:11:02.852Z,54.20
2023-01-04T00:13:30.796Z,54.37
2023-01-04T00:16:02.447Z,54.19
2023-01-04T00:18:35.975Z,54.25
2023-01-04T00:21:17.543Z,54.29
2023-01-04T00:23:46.484Z,54.56
2023-01-04T00:26:22.229Z,54.31
2023-01-04T00:28:54.616Z,54.35
2023-01-04T00:31:23.442Z,54.31
2023-01-04T00:33:53.195Z,54.54
2023-01-04T00:36:19.946Z,54.67
2023-01-04T00:38:46.649Z,54.48
2023-01-04T00:41:48.732Z,54.22
2023-01-04T00:44:03.465Z,54.40
2023-01-04T00:46:31.932Z,54.16
2023-01-04T00:49:00.709Z,54.22
2023-01-04T00:51:29.572Z,54.22
2023-01-04T00:53:57.189Z,53.81
2023-01-04T00:56:23.987Z,53.92
2023-01-04T00:58:54.305Z,53.86
2023-01-04T01:01:21.111Z,54.17
2023-01-04T01:03:47.857Z,54.14
2023-01-04T01:06:14.942Z,54.29
2023-01-04T01:08:41.562Z,54.05
2023-01-04T01:11:09.971Z,54.08
2023-01-04T01:13:38.668Z,54.39
2023-01-04T01:16:06.815Z,54.08
2023-01-04T01:18:35.445Z,53.95
2023-01-04T01:21:06.211Z,54.03
2023-01-04T01:23:33.380Z,54.26
2023-01-04T01:26:02.181Z,54.15
2023-01-04T01:28:29.670Z,54.41
2023-01-04T01:30:56.640Z,54.43
2023-01-04T01:33:23.355Z,54.36
2023-01-04T01:35:50.126Z,54.35
2023-01-04T01:38:16.956Z,54.52
2023-01-04T01:40:44.795Z,54.40
2023-01-04T01:43:19.659Z,54.51
2023-01-04T01:45:56.256Z,54.63
2023-01-04T01:48:28.748Z,54.53
2023-01-04T01:51:03.141Z,54.20
2023-01-04T01:53:35.555Z,54.53
2023-01-04T01:56:05.465Z,54.22
2023-01-04T01:58:37.719Z,54.30
2023-01-04T02:01:04.672Z,54.56
2023-01-04T02:03:36.346Z,54.52
2023-01-04T02:06:08.170Z,54.51
2023-01-04T02:08:38.028Z,54.53
2023-01-04T02:11:05.598Z,54.64
2023-01-04T02:13:53.703Z,54.71
2023-01-04T02:16:26.488Z,54.58
2023-01-04T02:19:28.404Z,54.73
2023-01-04T02:22:19.076Z,54.44
2023-01-04T02:25:03.833Z,54.35
2023-01-04T02:27:53.222Z,54.67
2023-01-04T02:30:51.446Z,54.88
2023-01-04T02:33:39.478Z,54.74
2023-01-04T02:36:14.950Z,54.61
2023-01-04T02:38:47.625Z,54.70
2023-01-04T02:41:29.286Z,54.55
2023-01-04T02:44:32.063Z,54.39
2023-01-04T02:47:39.693Z,54.72
2023-01-04T02:50:32.231Z,54.94
2023-01-04T02:53:10.096Z,54.73
2023-01-04T02:56:10.307Z,54.59
2023-01-04T02:59:08.215Z,54.56
2023-01-04T03:02:09.159Z,54.85
2023-01-04T03:05:24.995Z,54.53
2023-01-04T03:07:56.717Z,54.43
2023-01-04T03:10:43.703Z,54.57
2023-01-04T03:13:21.773Z,54.85
2023-01-04T03:15:54.043Z,54.87
2023-01-04T03:18:26.873Z,55.00
2023-01-04T03:20:57.355Z,54.72
2023-01-04T03:23:46.487Z,54.89
2023-01-04T03:26:58.461Z,55.21
2023-01-04T03:29:55.635Z,55.06
2023-01-04T03:32:49.947Z,54.84
2023-01-04T03:35:22.964Z,55.18
2023-01-04T03:38:18.624Z,55.34
2023-01-04T03:41:15.963Z,54.83
2023-01-04T03:44:10.576Z,54.85
2023-01-04T03:47:11.447Z,55.14
2023-01-04T03:49:47.603Z,55.21
2023-01-04T03:52:16.757Z,55.19
2023-01-04T03:54:48.176Z,55.21
2023-01-04T03:57:16.158Z,55.76
2023-01-04T03:59:50.250Z,55.26
2023-01-04T04:02:23.560Z,55.22
2023-01-04T04:05:08.830Z,55.37
2023-01-04T04:07:53.861Z,55.57
2023-01-04T04:10:20.526Z,55.61
2023-01-04T04:12:48.806Z,55.37
2023-01-04T04:15:16.121Z,55.42
2023-01-04T04:17:42.761Z,55.46
2023-01-04T04:20:11.591Z,55.60
2023-01-04T04:22:38.455Z,55.86
2023-01-04T04:25:05.681Z,55.65
2023-01-04T04:27:32.383Z,55.87
2023-01-04T04:29:59.059Z,55.61
2023-01-04T04:32:25.848Z,55.67
2023-01-04T04:34:52.595Z,55.65
2023-01-04T04:37:19.297Z,55.57
2023-01-04T04:39:45.943Z,55.45
2023-01-04T04:42:12.609Z,55.87
2023-01-04T04:44:39.294Z,55.46
2023-01-04T04:47:06.177Z,55.96
2023-01-04T04:49:32.878Z,55.84
2023-01-04T04:51:59.560Z,55.68
2023-01-04T04:54:26.302Z,55.66
2023-01-04T04:56:52.954Z,56.06
2023-01-04T04:59:19.824Z,55.99
2023-01-04T05:01:46.939Z,56.07
2023-01-04T05:04:19.488Z,55.64
2023-01-04T05:06:48.426Z,56.08
2023-01-04T05:09:15.876Z,55.99
2023-01-04T05:12:01.686Z,55.86
2023-01-04T05:14:28.439Z,55.54
2023-01-04T05:16:55.203Z,55.90
2023-01-04T05:19:22.104Z,56.08
2023-01-04T05:21:49.007Z,56.09
2023-01-04T05:24:15.684Z,55.93
2023-01-04T05:26:42.322Z,56.02
2023-01-04T05:29:29.143Z,56.02
2023-01-04T05:31:55.944Z,56.08
2023-01-04T05:34:22.792Z,56.10
2023-01-04T05:36:49.383Z,55.88
2023-01-04T05:39:16.113Z,56.36
2023-01-04T05:42:01.683Z,56.51
2023-01-04T05:44:28.343Z,56.18
2023-01-04T05:46:55.052Z,56.40
2023-01-04T05:49:21.681Z,57.72
2023-01-04T05:51:48.305Z,56.86
2023-01-04T05:54:20.872Z,56.76
2023-01-04T05:56:48.132Z,56.20
2023-01-04T05:59:16.158Z,56.28
2023-01-04T06:01:43.156Z,56.49
2023-01-04T06:04:10.116Z,56.65
2023-01-04T06:06:37.545Z,56.33
2023-01-04T06:09:04.385Z,56.44
2023-01-04T06:11:31.224Z,56.60
2023-01-04T06:13:57.964Z,56.63
2023-01-04T06:16:24.777Z,56.68
2023-01-04T06:18:51.644Z,56.94
2023-01-04T06:21:18.404Z,56.53
2023-01-04T06:23:45.032Z,56.70
2023-01-04T06:26:11.695Z,56.77
2023-01-04T06:28:41.282Z,56.33
2023-01-04T06:31:10.313Z,56.46
2023-01-04T06:33:37.404Z,56.50
2023-01-04T06:36:04.274Z,56.71
2023-01-04T06:38:31.851Z,56.84
2023-01-04T06:40:58.616Z,56.80
2023-01-04T06:43:25.613Z,56.58
2023-01-04T06:45:52.838Z,56.65
2023-01-04T06:48:19.705Z,56.71
2023-01-04T06:50:46.583Z,56.82
2023-01-04T06:53:13.433Z,56.30
2023-01-04T06:55:40.173Z,56.45
2023-01-04T06:58:06.874Z,56.80
2023-01-04T07:00:33.481Z,56.80
2023-01-04T07:03:13.342Z,56.99
2023-01-04T07:05:42.876Z,57.00
2023-01-04T07:08:09.823Z,57.04
2023-01-04T07:10:36.872Z,57.12
2023-01-04T07:13:04.221Z,57.00
2023-01-04T07:15:38.090Z,57.07
2023-01-04T07:18:08.694Z,56.92
2023-01-04T07:20:36.906Z,56.91
2023-01-04T07:23:04.116Z,56.80
2023-01-04T07:25:30.933Z,56.99
2023-01-04T07:27:57.560Z,57.16
2023-01-04T07:30:24.671Z,56.61
2023-01-04T07:32:52.736Z,57.11
2023-01-04T07:35:19.902Z,57.28
2023-01-04T07:37:48.818Z,57.07
2023-01-04T07:40:19.178Z,57.19
2023-01-04T07:42:54.829Z,57.13
2023-01-04T07:45:21.478Z,57.06
2023-01-04T07:47:48.167Z,57.06
2023-01-04T07:50:14.988Z,57.15
2023-01-04T07:52:41.802Z,57.42
2023-01-04T07:55:08.922Z,57.10
2023-01-04T07:57:35.473Z,57.02
2023-01-04T08:00:02.419Z,56.99
2023-01-04T08:02:38.946Z,56.89
2023-01-04T08:05:06.586Z,56.87
2023-01-04T08:07:33.477Z,57.17
2023-01-04T08:10:00.164Z,56.97
2023-01-04T08:12:26.919Z,56.65
2023-01-04T08:14:53.521Z,56.12
2023-01-04T08:17:20.232Z,56.13
2023-01-04T08:19:47.042Z,56.05
2023-01-04T08:22:14.511Z,55.56
2023-01-04T08:24:41.251Z,55.30
2023-01-04T08:27:08.460Z,55.33
2023-01-04T08:29:35.588Z,54.70
2023-01-04T08:32:02.505Z,54.96
2023-01-04T08:34:29.882Z,54.65
2023-01-04T08:36:56.724Z,54.57
2023-01-04T08:39:23.379Z,54.29
2023-01-04T08:42:00.548Z,54.26
2023-01-04T08:44:29.919Z,54.44
2023-01-04T08:46:57.031Z,54.20
2023-01-04T08:49:24.752Z,54.06
2023-01-04T08:51:51.603Z,54.12
2023-01-04T08:54:18.558Z,54.04
2023-01-04T08:56:45.459Z,54.11
2023-01-04T08:59:13.275Z,54.09
2023-01-04T09:01:40.944Z,54.15
2023-01-04T09:04:07.909Z,53.79
2023-01-04T09:06:35.256Z,53.71
2023-01-04T09:09:01.964Z,53.93
2023-01-04T09:11:28.891Z,53.94
2023-01-04T09:14:04.334Z,54.19
2023-01-04T09:16:34.346Z,54.12
2023-01-04T09:19:01.073Z,53.69
2023-01-04T09:21:27.971Z,53.66
2023-01-04T09:23:56.405Z,53.82
2023-01-04T09:26:24.611Z,53.42
2023-01-04T09:28:56.161Z,53.63
2023-01-04T09:31:28.386Z,53.46
2023-01-04T09:34:14.026Z,53.23
2023-01-04T09:36:41.221Z,53.58
2023-01-04T09:39:09.870Z,53.53
2023-01-04T09:41:49.589Z,53.46
2023-01-04T09:44:54.570Z,53.06
2023-01-04T09:47:39.798Z,53.27
2023-01-04T09:50:13.150Z,53.12
2023-01-04T09:52:55.083Z,53.27
2023-01-04T09:55:37.374Z,53.34
2023-01-04T09:58:21.165Z,53.03
2023-01-04T10:01:01.802Z,53.01
2023-01-04T10:03:34.896Z,53.35
2023-01-04T10:06:02.720Z,52.85
2023-01-04T10:08:31.527Z,53.31
2023-01-04T10:11:23.204Z,53.07
2023-01-04T10:14:04.500Z,52.99
2023-01-04T10:17:14.269Z,53.33
2023-01-04T10:22:30.996Z,52.96
2023-01-04T10:25:32.895Z,52.96
2023-01-04T10:28:21.719Z,53.04
2023-01-04T10:31:40.926Z,53.03
2023-01-04T10:33:50.879Z,53.02
2023-01-04T10:36:28.860Z,52.96
2023-01-04T10:39:00.625Z,52.96
2023-01-04T10:41:32.767Z,52.96
2023-01-04T10:44:11.461Z,52.65
2023-01-04T10:47:16.352Z,52.59
2023-01-04T10:50:17.950Z,52.55
2023-01-04T10:52:55.346Z,52.51
2023-01-04T10:55:24.809Z,52.55
2023-01-04T10:58:17.673Z,52.42
2023-01-04T11:00:54.247Z,52.50
2023-01-04T11:03:45.727Z,52.43
2023-01-04T11:06:20.744Z,52.30
2023-01-04T11:08:50.405Z,52.21
2023-01-04T11:11:36.010Z,52.25
2023-01-04T11:14:04.129Z,52.47
2023-01-04T11:16:30.915Z,52.36
2023-01-04T11:18:58.303Z,52.31
2023-01-04T11:21:32.428Z,52.39
2023-01-04T11:24:22.159Z,52.36
2023-01-04T11:26:48.899Z,52.51
2023-01-04T11:29:18.436Z,52.61
2023-01-04T11:31:54.524Z,52.50
2023-01-04T11:34:45.620Z,52.58
2023-01-04T11:37:35.509Z,52.55
2023-01-04T11:40:17.437Z,52.58
2023-01-04T11:42:50.144Z,52.62
2023-01-04T11:45:26.232Z,52.63
2023-01-04T11:47:58.352Z,52.85
2023-01-04T11:50:36.981Z,52.87
2023-01-04T11:53:23.409Z,52.62
2023-01-04T11:55:50.432Z,52.77
2023-01-04T11:58:19.194Z,52.68
2023-01-04T12:00:57.695Z,52.70
2023-01-04T12:03:37.762Z,52.35
2023-01-04T12:06:14.981Z,52.52
2023-01-04T12:08:42.891Z,52.24
2023-01-04T12:11:34.320Z,52.38
2023-01-04T12:14:02.348Z,52.24
2023-01-04T12:16:40.810Z,52.32
2023-01-04T12:19:13.494Z,52.20
2023-01-04T12:21:43.783Z,52.07
2023-01-04T12:24:17.207Z,52.26
2023-01-04T12:26:45.181Z,52.12
2023-01-04T12:29:23.929Z,51.88
2023-01-04T12:32:05.667Z,51.77
2023-01-04T12:34:34.233Z,52.05
2023-01-04T12:37:05.602Z,52.18
2023-01-04T12:39:41.576Z,51.82
2023-01-04T12:42:11.400Z,51.82
2023-01-04T12:44:46.714Z,51.83
2023-01-04T12:47:34.813Z,51.76
2023-01-04T12:50:07.435Z,52.08
2023-01-04T12:52:48.359Z,51.87
2023-01-04T12:55:32.755Z,52.14
2023-01-04T12:58:00.503Z,52.18
2023-01-04T13:00:50.347Z,51.99
2023-01-04T13:03:17.531Z,52.03
2023-01-04T13:05:59.317Z,52.04
2023-01-04T13:08:26.701Z,52.53
2023-01-04T13:10:55.635Z,52.47
2023-01-04T13:13:57.662Z,52.18
2023-01-04T13:16:45.322Z,52.14
2023-01-04T13:19:24.398Z,52.35
2023-01-04T13:21:52.866Z,52.71
2023-01-04T13:24:30.660Z,52.84
2023-01-04T13:26:58.701Z,52.64
2023-01-04T13:29:27.881Z,52.43
2023-01-04T13:31:54.738Z,52.21
2023-01-04T13:34:23.985Z,52.37
2023-01-04T13:37:01.480Z,52.60
2023-01-04T13:39:29.206Z,52.39
2023-01-04T13:41:57.810Z,52.46
2023-01-04T13:45:17.316Z,52.58
2023-01-04T13:47:25.118Z,52.70
2023-01-04T13:49:52.200Z,52.59
2023-01-04T13:52:58.381Z,52.39
2023-01-04T13:55:23.639Z,52.42
2023-01-04T13:57:57.828Z,52.25
2023-01-04T14:00:27.158Z,52.52
2023-01-04T14:03:26.304Z,52.51
2023-01-04T14:05:59.887Z,52.24
2023-01-04T14:08:37.188Z,52.29
2023-01-04T14:11:36.099Z,52.15
2023-01-04T14:14:05.219Z,52.13
2023-01-04T14:16:31.883Z,52.38
2023-01-04T14:18:58.568Z,52.27
2023-01-04T14:21:36.255Z,52.22
2023-01-04T14:24:03.081Z,52.57
2023-01-04T14:26:33.425Z,52.34
2023-01-04T14:29:30.005Z,52.50
2023-01-04T14:31:57.133Z,52.50
2023-01-04T14:34:25.080Z,52.92
2023-01-04T14:37:03.886Z,53.02
2023-01-04T14:39:33.485Z,52.98
2023-01-04T14:42:01.605Z,52.46
2023-01-04T14:44:30.873Z,52.67
2023-01-04T14:47:00.761Z,52.46
2023-01-04T14:49:28.554Z,52.56
2023-01-04T14:51:57.996Z,52.35
2023-01-04T14:54:27.182Z,52.50
2023-01-04T14:56:54.709Z,52.58
2023-01-04T14:59:23.971Z,52.42
2023-01-04T15:01:52.644Z,52.51
2023-01-04T15:04:19.647Z,52.51
2023-01-04T15:06:49.185Z,52.54
2023-01-04T15:09:16.016Z,52.59
2023-01-04T15:11:42.756Z,52.67
2023-01-04T15:14:09.507Z,52.68
2023-01-04T15:16:36.277Z,52.91
2023-01-04T15:19:03.045Z,52.53
2023-01-04T15:21:31.056Z,52.78
2023-01-04T15:23:59.650Z,52.74
2023-01-04T15:26:26.425Z,52.73
2023-01-04T15:28:53.254Z,52.97
2023-01-04T15:31:28.165Z,52.84
2023-01-04T15:33:58.484Z,52.93
2023-01-04T15:36:25.155Z,53.47
2023-01-04T15:38:55.279Z,53.26
2023-01-04T15:41:40.850Z,52.99
2023-01-04T15:44:11.300Z,53.16
2023-01-04T15:46:38.296Z,52.90
2023-01-04T15:49:05.051Z,52.87
2023-01-04T15:51:31.886Z,53.14
2023-01-04T15:53:58.524Z,53.34
2023-01-04T15:56:26.467Z,53.34
2023-01-04T15:58:55.068Z,53.08
2023-01-04T16:01:22.335Z,52.95
2023-01-04T16:03:53.388Z,53.08
2023-01-04T16:06:21.561Z,52.72
2023-01-04T16:08:50.505Z,52.67
2023-01-04T16:11:22.154Z,53.19
2023-01-04T16:13:50.704Z,53.09
2023-01-04T16:16:19.232Z,53.27
2023-01-04T16:18:48.407Z,53.02
2023-01-04T16:21:16.523Z,53.31
2023-01-04T16:23:43.483Z,53.27
2023-01-04T16:26:14.727Z,53.25
2023-01-04T16:28:41.702Z,53.16
2023-01-04T16:31:09.283Z,53.03
2023-01-04T16:33:36.662Z,53.13
2023-01-04T16:36:07.052Z,53.36
2023-01-04T16:38:42.020Z,53.26
2023-01-04T16:41:12.191Z,53.06
2023-01-04T16:43:45.835Z,53.16
2023-01-04T16:46:12.780Z,52.90
2023-01-04T16:48:43.516Z,52.87
2023-01-04T16:51:10.948Z,53.01
2023-01-04T16:53:38.773Z,52.85
2023-01-04T16:56:08.314Z,52.92
2023-01-04T16:58:35.336Z,52.96
2023-01-04T17:01:23.484Z,53.11
2023-01-04T17:03:53.885Z,52.64
2023-01-04T17:06:26.450Z,53.32
2023-01-04T17:08:55.241Z,53.27
2023-01-04T17:12:11.373Z,52.85
2023-01-04T17:14:14.277Z,52.74
2023-01-04T17:16:42.382Z,52.85
2023-01-04T17:19:09.663Z,52.38
2023-01-04T17:21:36.382Z,52.71
2023-01-04T17:24:03.722Z,52.93
2023-01-04T17:26:32.284Z,52.79
2023-01-04T17:29:00.524Z,52.73
2023-01-04T17:31:35.997Z,52.75
2023-01-04T17:34:02.961Z,52.68
2023-01-04T17:36:30.245Z,52.94
2023-01-04T17:39:00.511Z,52.91
2023-01-04T17:41:28.837Z,53.25
2023-01-04T17:44:03.873Z,53.25
2023-01-04T17:46:33.698Z,53.13
2023-01-04T17:49:24.147Z,53.53
2023-01-04T17:51:54.520Z,53.12
2023-01-04T17:54:21.435Z,53.31
2023-01-04T17:56:48.216Z,53.07
2023-01-04T17:59:14.941Z,52.96
2023-01-04T18:01:41.617Z,53.20
2023-01-04T18:04:09.226Z,52.94
2023-01-04T18:06:37.294Z,52.95
2023-01-04T18:09:06.624Z,53.02
2023-01-04T18:11:34.518Z,53.23
2023-01-04T18:14:04.220Z,53.40
2023-01-04T18:16:54.832Z,53.41
2023-01-04T18:19:23.145Z,53.23
2023-01-04T18:21:49.903Z,52.96
2023-01-04T18:24:35.532Z,53.00
2023-01-04T18:29:51.419Z,53.08
2023-01-04T18:32:18.248Z,53.00
2023-01-04T18:34:45.120Z,53.44
2023-01-04T18:37:11.914Z,52.91
2023-01-04T18:39:38.511Z,53.19
2023-01-04T18:42:05.199Z,53.41
2023-01-04T18:44:33.820Z,53.27
2023-01-04T18:47:01.711Z,53.46
2023-01-04T18:49:28.342Z,53.62
2023-01-04T18:51:55.009Z,53.46
2023-01-04T18:54:22.033Z,54.01
2023-01-04T18:56:49.236Z,53.50
2023-01-04T18:59:18.992Z,53.72
2023-01-04T19:01:46.199Z,53.29
2023-01-04T19:04:16.172Z,53.56
2023-01-04T19:06:43.436Z,53.48
2023-01-04T19:09:10.686Z,53.60
2023-01-04T19:11:37.303Z,53.32
2023-01-04T19:14:04.088Z,53.74
2023-01-04T19:16:31.368Z,53.19
2023-01-04T19:18:59.968Z,53.30
2023-01-04T19:21:27.322Z,53.48
2023-01-04T19:23:54.441Z,53.21
2023-01-04T19:26:21.788Z,53.30
2023-01-04T19:28:48.689Z,53.05
2023-01-04T19:31:16.534Z,53.15
2023-01-04T19:33:43.308Z,53.13
2023-01-04T19:36:12.674Z,52.96
2023-01-04T19:38:40.089Z,53.34
2023-01-04T19:41:08.432Z,52.80
2023-01-04T19:43:35.836Z,53.12
2023-01-04T19:46:07.708Z,53.12
2023-01-04T19:48:34.717Z,52.82
2023-01-04T19:51:07.544Z,53.36
2023-01-04T19:53:34.575Z,53.10
2023-01-04T19:56:01.536Z,53.01
2023-01-04T19:58:28.146Z,52.93
2023-01-04T20:00:57.943Z,52.86
2023-01-04T20:03:28.189Z,52.97
2023-01-04T20:05:55.670Z,52.86
2023-01-04T20:08:22.603Z,53.33
2023-01-04T20:10:55.043Z,53.33
2023-01-04T20:13:25.860Z,53.36
2023-01-04T20:15:52.994Z,53.29
2023-01-04T20:18:20.122Z,53.34
2023-01-04T20:20:47.314Z,53.36
2023-01-04T20:23:15.076Z,53.33
2023-01-04T20:25:47.696Z,53.12
2023-01-04T20:28:15.715Z,53.29
2023-01-04T20:30:44.597Z,53.08
2023-01-04T20:33:11.499Z,53.44
2023-01-04T20:35:44.691Z,53.21
2023-01-04T20:38:12.157Z,53.49
2023-01-04T20:40:40.065Z,53.41
2023-01-04T20:43:25.757Z,53.24
2023-01-04T20:45:52.616Z,53.52
2023-01-04T20:48:19.600Z,53.59
2023-01-04T20:50:46.304Z,53.68
2023-01-04T20:53:13.683Z,53.24
2023-01-04T20:55:42.161Z,53.71
2023-01-04T20:58:11.723Z,53.21
2023-01-04T21:00:39.475Z,53.63
2023-01-04T21:03:07.855Z,53.66
2023-01-04T21:05:43.951Z,53.45
2023-01-04T21:08:11.913Z,53.71
2023-01-04T21:10:43.050Z,53.43
2023-01-04T21:13:11.373Z,53.55
2023-01-04T21:15:40.066Z,53.23
2023-01-04T21:18:07.465Z,53.02
2023-01-04T21:20:46.837Z,53.26
2023-01-04T21:23:15.329Z,53.72
2023-01-04T21:25:42.910Z,53.31
2023-01-04T21:28:11.156Z,53.77
2023-01-04T21:30:45.423Z,53.95
2023-01-04T21:33:13.851Z,53.98
2023-01-04T21:35:41.513Z,54.28
2023-01-04T21:38:10.467Z,54.12
2023-01-04T21:40:42.665Z,53.96
2023-01-04T21:43:35.425Z,54.16
2023-01-04T21:46:07.300Z,53.90
2023-01-04T21:48:34.391Z,53.39
2023-01-04T21:51:02.448Z,53.61
2023-01-04T21:53:30.368Z,53.92
2023-01-04T21:56:01.927Z,53.75
2023-01-04T21:58:29.634Z,53.65
2023-01-04T22:00:57.300Z,53.11
2023-01-04T22:03:24.410Z,53.57
2023-01-04T22:05:51.352Z,53.26
2023-01-04T22:08:18.094Z,53.45
2023-01-04T22:10:45.007Z,53.40
2023-01-04T22:13:11.802Z,53.20
2023-01-04T22:15:40.274Z,53.34
2023-01-04T22:18:09.026Z,53.59
2023-01-04T22:20:37.520Z,53.98
2023-01-04T22:23:04.248Z,54.16
2023-01-04T22:25:30.952Z,53.62
2023-01-04T22:27:57.631Z,53.50
2023-01-04T22:30:27.292Z,53.89
2023-01-04T22:32:54.757Z,54.06
2023-01-04T22:35:22.483Z,53.84
2023-01-04T22:37:49.285Z,53.77
2023-01-04T22:40:16.128Z,53.87
2023-01-04T22:42:42.915Z,53.75
2023-01-04T22:45:13.247Z,54.02
2023-01-04T22:47:40.404Z,54.08
2023-01-04T22:50:07.436Z,54.38
2023-01-04T22:52:34.095Z,54.23
2023-01-04T22:55:00.764Z,54.61
2023-01-04T22:57:27.420Z,54.68
2023-01-04T22:59:54.351Z,54.40
2023-01-04T23:02:21.197Z,54.28
2023-01-04T23:04:48.094Z,54.57
2023-01-04T23:07:15.015Z,54.58
2023-01-04T23:09:41.915Z,54.83
2023-01-04T23:12:11.569Z,54.82
2023-01-04T23:14:38.754Z,55.12
2023-01-04T23:17:05.454Z,55.21
2023-01-04T23:19:34.439Z,55.31
2023-01-04T23:22:01.497Z,55.21
2023-01-04T23:24:28.390Z,55.32
2023-01-04T23:26:55.205Z,55.22
2023-01-04T23:29:21.976Z,55.36
2023-01-04T23:31:48.983Z,55.65
2023-01-04T23:34:15.652Z,55.46
2023-01-04T23:36:42.902Z,55.57
2023-01-04T23:39:15.220Z,55.52
2023-01-04T23:41:45.874Z,55.61
2023-01-04T23:44:20.384Z,56.02
2023-01-04T23:46:52.369Z,55.66
2023-01-04T23:49:19.127Z,55.56
2023-01-04T23:51:45.796Z,55.63
2023-01-04T23:54:12.510Z,55.87
2023-01-04T23:56:42.340Z,55.95
2023-01-04T23:59:09.527Z,55.95
